KGFK

Grand Forks International Airport

Airport
ICAO code
KGFK
IATA Code
GFK
Summary
ICAO Region
NAM
ICAO Territory
Location

Grand Forks, North Dakota

Serving
Grand Forks
Elevation
845 ft
Coordinates
47° 57' 4" N , 97° 10' 15" W
KCC
Airport CFIT
Altimeter Temperature Error Correction
Airport GND
Aircraft Ground De/Anti Icing
Airport LOS
Parallel Runway Operation
Airport RE
Landing on Contaminated Runways
Airport WX
Cumulonimbus
Metar
KGFK 270753Z AUTO 21004KT 10SM -RA OVC070 13/11 A2975 RMK AO2 SLP077 P0002 T01330111

Grand Forks International Airport is a public use airport located 5 nm northwest of the central business district of Grand Forks, a city in Grand Forks County, North Dakota, USA.

Airport map

Aerial View

SKYbrary Partners:

Safety knowledge contributed by: